Rodeo, New Mexico
Current Conditions -  °F | °C
As of 12:35 PM on Friday 24 Oct 2014 (Local Time) from KLSB Reporting Station
Clear Clear  
Wind Chill: 77°   Ceiling: Unl
Heat Index: 78°   Visibility: 10mi
Dew Point: 45°   Wind: 3mph
Humidity: 32%   Direction: 120°ESE
Pressure: 30.26"   Gusts: NA
Location:  31.83°N, 109.03°W
Report Text: KLSB 241835Z AUTO 12003KT 10SM CLR 25/07 A3026 RMK AO2
Loading
Personal Weather Stations






























Interactive Weather Map
Tropical Storm Tracking
New forecast layout! Learn more

10-Day Weather Forecast

Advertisements
Track Severe Weather on mobile